Cowen, West Virginia
Current Conditions -  °F | °C
As of 8:35 PM on Monday 20 Oct 2014 (Local Time) from KLWB Reporting Station
Broken Clouds Broken Clouds  
Wind Chill: 51°   Ceiling: 12000
Heat Index: 51°   Visibility: 10mi
Dew Point: 44°   Wind: 0mph
Humidity: 76%   Direction: NA
Pressure: 29.97"   Gusts: NA
Location:  38.41°N, 80.56°W
Report Text: KLWB 210035Z AUTO 00000KT 10SM SCT075 SCT090 BKN120 11/07 A2997 RMK AO2 LTG DSNT N T01050065
Loading
Personal Weather Stations






























Interactive Weather Map New forecast layout! Learn more

10-Day Weather Forecast

Advertisements
Track Severe Weather on mobile